Time;durP1;ratioP1;P1;durP2;ratioP2;P2;SDS_P1;SDS_P2;PMS_P1;PMS_P2;Temp;Humidity;BMP_temperature;BMP_pressure;BME280_temperature;BME280_humidity;BME280_pressure;Samples;Min_cycle;Max_cycle;Signal;HPM_P1;HPM_P2
2022/06/26 00:00:19;;;;;;;;;;;20.50;99.90;;;;;;5069546;28;19927;-72
2022/06/26 00:02:45;;;;;;;;;;;20.50;99.90;;;;;;5069498;28;20379;-72
2022/06/26 00:05:11;;;;;;;;;;;20.50;99.90;;;;;;5069454;28;20007;-72
2022/06/26 00:07:36;;;;;;;;;;;20.40;99.90;;;;;;5051433;28;19999;-72
2022/06/26 00:10:02;;;;;;;;;;;20.40;99.90;;;;;;5072668;28;19908;-71
2022/06/26 00:12:28;;;;;;;;;;;20.40;99.90;;;;;;5073125;28;20042;-72
2022/06/26 00:14:53;;;;;;;;;;;20.40;99.90;;;;;;5073112;28;20058;-71
2022/06/26 00:17:19;;;;;;;;;;;20.30;99.90;;;;;;5055170;28;19981;-72
2022/06/26 00:19:44;;;;;;;;;;;20.30;99.90;;;;;;5073027;28;20607;-72
2022/06/26 00:22:10;;;;;;;;;;;20.30;99.90;;;;;;5073354;28;19916;-72
2022/06/26 00:24:36;;;;;;;;;;;20.30;99.90;;;;;;5073005;28;20061;-71
2022/06/26 00:27:06;;;;;;;;;;;20.30;99.90;;;;;;5072799;28;19928;-71
2022/06/26 00:29:35;;;;;;;;;;;20.30;99.90;;;;;;5072825;28;19924;-72
2022/06/26 00:32:01;;;;;;;;;;;20.20;99.90;;;;;;5073104;28;19954;-72
2022/06/26 00:34:27;;;;;;;;;;;20.20;99.90;;;;;;5072756;28;19912;-72
2022/06/26 00:36:53;;;;;;;;;;;20.20;99.90;;;;;;5072531;28;19931;-72
2022/06/26 00:39:18;;;;;;;;;;;20.20;99.90;;;;;;5072611;28;19969;-71
2022/06/26 00:41:44;;;;;;;;;;;20.20;99.90;;;;;;5072983;28;20015;-71
2022/06/26 00:44:14;;;;;;;;;;;20.20;99.90;;;;;;5054692;28;19923;-72
2022/06/26 00:46:39;;;;;;;;;;;20.20;99.90;;;;;;5072927;28;19939;-72
2022/06/26 00:49:05;;;;;;;;;;;20.10;99.90;;;;;;5054617;28;20383;-72
2022/06/26 00:51:30;;;;;;;;;;;20.10;99.90;;;;;;5054459;28;20315;-71
2022/06/26 00:53:56;;;;;;;;;;;20.10;99.90;;;;;;5072495;28;19909;-72
2022/06/26 00:56:21;;;;;;;;;;;20.10;99.90;;;;;;5072690;28;19923;-72
2022/06/26 00:58:47;;;;;;;;;;;20.10;99.90;;;;;;5072297;28;20476;-71
2022/06/26 01:01:12;;;;;;;;;;;20.00;99.90;;;;;;5072400;28;19931;-72
2022/06/26 01:03:38;;;;;;;;;;;20.00;99.90;;;;;;5072330;28;19920;-72
2022/06/26 01:06:06;;;;;;;;;;;20.00;99.90;;;;;;5072559;28;20359;-71
2022/06/26 01:08:32;;;;;;;;;;;20.10;99.90;;;;;;5054128;28;19916;-71
2022/06/26 01:10:58;;;;;;;;;;;20.00;99.90;;;;;;5071997;28;19920;-72
2022/06/26 01:13:24;;;;;;;;;;;20.00;99.90;;;;;;5054019;28;19918;-72
2022/06/26 01:15:49;;;;;;;;;;;20.00;99.90;;;;;;5072150;28;20284;-72
2022/06/26 01:18:15;;;;;;;;;;;20.00;99.90;;;;;;5071890;28;19916;-72
2022/06/26 01:20:40;;;;;;;;;;;20.00;99.90;;;;;;5071357;28;19924;-72
2022/06/26 01:23:06;;;;;;;;;;;20.00;99.90;;;;;;5071860;28;20368;-72
2022/06/26 01:25:45;;;;;;;;;;;20.00;99.90;;;;;;5071766;28;19922;-71
2022/06/26 01:28:11;;;;;;;;;;;20.00;99.90;;;;;;5071704;28;19943;-72
2022/06/26 01:30:37;;;;;;;;;;;20.00;99.90;;;;;;5053722;28;19959;-72
2022/06/26 01:33:03;;;;;;;;;;;19.90;99.90;;;;;;5071435;28;19908;-72
2022/06/26 01:35:28;;;;;;;;;;;19.90;99.90;;;;;;5071323;28;19948;-72
2022/06/26 01:37:54;;;;;;;;;;;19.90;99.90;;;;;;5071453;28;20287;-71
2022/06/26 01:40:19;;;;;;;;;;;19.90;99.90;;;;;;5053393;28;20356;-72
2022/06/26 01:42:45;;;;;;;;;;;19.90;99.90;;;;;;5071337;28;19954;-72
2022/06/26 01:45:10;;;;;;;;;;;19.90;99.90;;;;;;5071564;28;19962;-72
2022/06/26 01:47:36;;;;;;;;;;;19.90;99.90;;;;;;5071290;28;19909;-72
2022/06/26 01:50:01;;;;;;;;;;;19.80;99.90;;;;;;5071542;28;20041;-71
2022/06/26 01:52:26;;;;;;;;;;;19.80;99.90;;;;;;5071208;28;19916;-72
2022/06/26 01:54:52;;;;;;;;;;;19.80;99.90;;;;;;5071269;28;20020;-72
2022/06/26 01:57:17;;;;;;;;;;;19.80;99.90;;;;;;5071642;28;19917;-72
2022/06/26 01:59:44;;;;;;;;;;;19.80;99.90;;;;;;5070926;28;19927;-72
2022/06/26 02:02:09;;;;;;;;;;;19.60;99.90;;;;;;5052860;28;20391;-72
2022/06/26 02:04:35;;;;;;;;;;;19.60;99.90;;;;;;5071001;28;19909;-71
2022/06/26 02:07:00;;;;;;;;;;;19.70;99.90;;;;;;5071443;28;20261;-72
2022/06/26 02:15:03;;;;;;;;;;;19.60;99.90;;;;;;5071005;28;19920;-72
2022/06/26 02:17:29;;;;;;;;;;;19.60;99.90;;;;;;5070893;28;19908;-71
2022/06/26 02:19:54;;;;;;;;;;;19.60;99.90;;;;;;5070774;28;20386;-72
2022/06/26 02:22:20;;;;;;;;;;;19.60;99.90;;;;;;5052919;28;19969;-72
2022/06/26 02:24:45;;;;;;;;;;;19.60;99.90;;;;;;5052707;28;19909;-71
2022/06/26 02:27:11;;;;;;;;;;;19.60;99.90;;;;;;5071018;28;20392;-72
2022/06/26 02:29:36;;;;;;;;;;;19.70;99.90;;;;;;5070612;28;19912;-72
2022/06/26 02:32:02;;;;;;;;;;;19.60;99.90;;;;;;5051936;28;19916;-72
2022/06/26 02:34:27;;;;;;;;;;;19.60;99.90;;;;;;5070548;28;19996;-71
2022/06/26 02:36:53;;;;;;;;;;;19.60;99.90;;;;;;5070497;28;19978;-72
2022/06/26 02:39:18;;;;;;;;;;;19.60;99.90;;;;;;5070394;28;19919;-72
2022/06/26 02:41:44;;;;;;;;;;;19.60;99.90;;;;;;5070897;28;19934;-72
2022/06/26 02:44:09;;;;;;;;;;;19.60;99.90;;;;;;5070389;28;20372;-72
2022/06/26 02:46:35;;;;;;;;;;;19.60;99.90;;;;;;5070768;28;19954;-72
2022/06/26 02:49:00;;;;;;;;;;;19.60;99.90;;;;;;5070358;28;20247;-72
2022/06/26 02:51:25;;;;;;;;;;;19.60;99.90;;;;;;5070622;28;20491;-72
2022/06/26 02:53:52;;;;;;;;;;;19.50;99.90;;;;;;5052254;28;19909;-72
2022/06/26 02:56:17;;;;;;;;;;;19.50;99.90;;;;;;5070821;28;19970;-71
2022/06/26 02:58:42;;;;;;;;;;;19.60;99.90;;;;;;5070285;28;19959;-72
2022/06/26 03:01:08;;;;;;;;;;;19.60;99.90;;;;;;5070554;28;20073;-72
2022/06/26 03:03:33;;;;;;;;;;;19.60;99.90;;;;;;5070221;28;19913;-72
2022/06/26 03:05:59;;;;;;;;;;;19.60;99.90;;;;;;5070444;28;20253;-72
2022/06/26 03:08:24;;;;;;;;;;;19.60;99.90;;;;;;5052159;28;20360;-71
2022/06/26 03:10:50;;;;;;;;;;;19.60;99.90;;;;;;5070428;28;20368;-72
2022/06/26 03:13:16;;;;;;;;;;;19.60;99.90;;;;;;5070392;28;19913;-72
2022/06/26 03:15:41;;;;;;;;;;;19.60;99.90;;;;;;5052209;28;20424;-71
2022/06/26 03:18:07;;;;;;;;;;;19.60;99.90;;;;;;5070182;28;19912;-72
2022/06/26 03:20:32;;;;;;;;;;;19.60;99.90;;;;;;5070320;28;20285;-72
2022/06/26 03:22:58;;;;;;;;;;;19.60;99.90;;;;;;5070256;28;19958;-72
2022/06/26 03:25:23;;;;;;;;;;;19.70;99.90;;;;;;5070191;28;20037;-71
2022/06/26 03:27:50;;;;;;;;;;;19.70;99.90;;;;;;5070272;28;20438;-72
2022/06/26 03:30:16;;;;;;;;;;;19.70;99.90;;;;;;5070308;28;20414;-72
2022/06/26 03:32:41;;;;;;;;;;;19.80;99.90;;;;;;5069987;28;19908;-72
2022/06/26 03:35:08;;;;;;;;;;;19.80;99.90;;;;;;5069840;28;19913;-72
2022/06/26 03:37:33;;;;;;;;;;;19.90;99.90;;;;;;5069954;28;19977;-71
2022/06/26 03:39:59;;;;;;;;;;;19.90;99.90;;;;;;5051576;28;20356;-71
2022/06/26 03:42:25;;;;;;;;;;;19.90;99.90;;;;;;5070245;28;19930;-72
2022/06/26 03:44:51;;;;;;;;;;;20.00;99.90;;;;;;5072915;28;19930;-72
2022/06/26 03:47:16;;;;;;;;;;;20.00;99.90;;;;;;5074399;28;19920;-72
2022/06/26 03:49:42;;;;;;;;;;;20.00;99.90;;;;;;5073734;28;19947;-72
2022/06/26 03:52:07;;;;;;;;;;;20.00;99.90;;;;;;5074190;28;20018;-72
2022/06/26 03:54:34;;;;;;;;;;;20.00;99.90;;;;;;5073905;28;20318;-72
2022/06/26 03:56:59;;;;;;;;;;;20.00;99.90;;;;;;5074195;28;20313;-72
2022/06/26 03:59:25;;;;;;;;;;;20.00;99.90;;;;;;5074001;28;19959;-72
2022/06/26 04:01:50;;;;;;;;;;;20.00;99.90;;;;;;5073882;28;20276;-72
2022/06/26 04:04:16;;;;;;;;;;;20.00;99.90;;;;;;5073469;28;19947;-71
2022/06/26 04:06:41;;;;;;;;;;;20.00;99.90;;;;;;5073822;28;19925;-72
2022/06/26 04:09:07;;;;;;;;;;;20.00;99.90;;;;;;5073591;28;19916;-71
2022/06/26 04:11:32;;;;;;;;;;;20.10;99.90;;;;;;5073467;28;19927;-72
2022/06/26 04:13:58;;;;;;;;;;;20.10;99.90;;;;;;5073685;28;19908;-72
2022/06/26 04:16:23;;;;;;;;;;;20.10;99.90;;;;;;5073679;28;20007;-71
2022/06/26 04:18:48;;;;;;;;;;;20.20;99.90;;;;;;5055238;28;19920;-72
2022/06/26 04:21:14;;;;;;;;;;;20.20;99.90;;;;;;5073461;28;19925;-72
2022/06/26 04:23:39;;;;;;;;;;;20.30;99.90;;;;;;5055263;28;19915;-72
2022/06/26 04:26:05;;;;;;;;;;;20.30;99.90;;;;;;5073118;28;19923;-71
2022/06/26 04:28:31;;;;;;;;;;;20.30;99.90;;;;;;5073393;28;20275;-72
2022/06/26 04:30:56;;;;;;;;;;;20.30;99.90;;;;;;5073447;28;19916;-72
2022/06/26 04:33:22;;;;;;;;;;;20.40;99.90;;;;;;5072979;28;19919;-72
2022/06/26 04:35:47;;;;;;;;;;;20.30;99.90;;;;;;5072896;28;19943;-72
2022/06/26 04:38:13;;;;;;;;;;;20.40;99.90;;;;;;5073224;28;19935;-72
2022/06/26 04:40:38;;;;;;;;;;;20.40;99.90;;;;;;5072875;28;19927;-72
2022/06/26 04:43:04;;;;;;;;;;;20.40;99.90;;;;;;5072847;28;19951;-71
2022/06/26 04:45:29;;;;;;;;;;;20.40;99.90;;;;;;5072809;28;19970;-72
2022/06/26 04:47:55;;;;;;;;;;;20.50;99.90;;;;;;5073000;28;19912;-71
2022/06/26 04:50:20;;;;;;;;;;;20.50;99.90;;;;;;5072932;28;20023;-72
2022/06/26 04:52:47;;;;;;;;;;;20.50;99.90;;;;;;5072659;28;20280;-72
2022/06/26 04:55:12;;;;;;;;;;;20.60;99.90;;;;;;5071593;28;19908;-72
2022/06/26 04:57:38;;;;;;;;;;;20.60;99.90;;;;;;5072619;28;19908;-72
2022/06/26 05:00:08;;;;;;;;;;;20.70;99.90;;;;;;5072485;28;20039;-72
2022/06/26 05:02:35;;;;;;;;;;;20.70;99.90;;;;;;5072554;28;20356;-72
2022/06/26 05:05:01;;;;;;;;;;;20.70;99.90;;;;;;5072707;28;19909;-71
2022/06/26 05:07:26;;;;;;;;;;;20.70;99.90;;;;;;5072600;28;19912;-71
2022/06/26 05:09:52;;;;;;;;;;;20.80;99.90;;;;;;5072494;28;19931;-72
2022/06/26 05:12:17;;;;;;;;;;;20.80;99.90;;;;;;5072759;28;19921;-72
2022/06/26 05:14:43;;;;;;;;;;;20.80;99.90;;;;;;5054296;28;20006;-72
2022/06/26 05:17:09;;;;;;;;;;;20.90;99.90;;;;;;5072756;28;20393;-72
2022/06/26 05:19:35;;;;;;;;;;;20.90;99.90;;;;;;5054238;28;20383;-72
2022/06/26 05:22:02;;;;;;;;;;;20.90;99.90;;;;;;5072451;28;19943;-72
2022/06/26 05:24:28;;;;;;;;;;;21.00;99.90;;;;;;5072429;28;19934;-72
2022/06/26 05:26:53;;;;;;;;;;;21.10;99.90;;;;;;5072387;28;19916;-68
2022/06/26 05:29:18;;;;;;;;;;;21.20;99.90;;;;;;5072163;28;19908;-68
2022/06/26 05:31:44;;;;;;;;;;;21.40;99.90;;;;;;5072322;28;19921;-68
2022/06/26 05:34:09;;;;;;;;;;;21.50;99.90;;;;;;5072036;28;20332;-68
2022/06/26 05:36:35;;;;;;;;;;;21.60;99.90;;;;;;5071646;28;19929;-69
2022/06/26 05:39:00;;;;;;;;;;;21.60;99.90;;;;;;5071905;28;20338;-68
2022/06/26 05:41:26;;;;;;;;;;;21.70;99.90;;;;;;5053954;28;19920;-67
2022/06/26 05:43:51;;;;;;;;;;;21.70;99.90;;;;;;5071936;28;19909;-68
2022/06/26 05:46:17;;;;;;;;;;;21.70;99.90;;;;;;5071824;28;20372;-69
2022/06/26 05:48:43;;;;;;;;;;;21.80;99.90;;;;;;5071647;28;19909;-68
2022/06/26 05:51:08;;;;;;;;;;;21.90;99.90;;;;;;5071692;28;19920;-69
2022/06/26 05:53:34;;;;;;;;;;;21.90;99.90;;;;;;5071438;28;19916;-66
2022/06/26 05:55:59;;;;;;;;;;;22.00;99.90;;;;;;5071157;28;19947;-67
2022/06/26 05:58:25;;;;;;;;;;;22.00;99.90;;;;;;5071237;28;19981;-67
2022/06/26 06:00:50;;;;;;;;;;;22.10;99.90;;;;;;5071351;28;19917;-68
2022/06/26 06:03:16;;;;;;;;;;;22.10;99.90;;;;;;5071494;28;19999;-67
2022/06/26 06:05:41;;;;;;;;;;;22.10;99.90;;;;;;5071287;28;20349;-68
2022/06/26 06:08:07;;;;;;;;;;;22.20;99.90;;;;;;5071295;28;19912;-68
2022/06/26 06:10:32;;;;;;;;;;;22.20;99.90;;;;;;5071132;28;20386;-68
2022/06/26 06:12:58;;;;;;;;;;;22.30;99.90;;;;;;5071032;28;19997;-68
2022/06/26 06:15:23;;;;;;;;;;;22.40;99.90;;;;;;5071001;28;19922;-67
2022/06/26 06:17:49;;;;;;;;;;;22.40;99.90;;;;;;5070954;28;20279;-67
2022/06/26 06:20:19;;;;;;;;;;;22.50;99.90;;;;;;5070712;28;19916;-68
2022/06/26 06:22:49;;;;;;;;;;;22.60;99.90;;;;;;5070862;28;19951;-67
2022/06/26 06:25:14;;;;;;;;;;;22.70;99.90;;;;;;5070931;28;19909;-67
2022/06/26 06:27:40;;;;;;;;;;;22.70;99.90;;;;;;5070766;28;20279;-67
2022/06/26 06:30:07;;;;;;;;;;;22.80;99.90;;;;;;5070936;28;19999;-67
2022/06/26 06:32:32;;;;;;;;;;;22.90;99.90;;;;;;5070465;28;19947;-68
2022/06/26 06:34:58;;;;;;;;;;;23.00;99.90;;;;;;5070962;28;20581;-68
2022/06/26 06:37:23;;;;;;;;;;;23.10;99.90;;;;;;5070541;28;20019;-67
2022/06/26 06:39:49;;;;;;;;;;;23.20;99.90;;;;;;5052610;28;19916;-67
2022/06/26 06:42:14;;;;;;;;;;;23.20;99.90;;;;;;5070986;28;19935;-68
2022/06/26 06:44:40;;;;;;;;;;;23.30;99.90;;;;;;5070991;28;19913;-67
2022/06/26 06:47:06;;;;;;;;;;;23.50;99.90;;;;;;5070901;28;19998;-68
2022/06/26 06:49:31;;;;;;;;;;;23.50;99.90;;;;;;5070510;28;20368;-67
2022/06/26 06:51:57;;;;;;;;;;;23.60;99.90;;;;;;5070400;28;19999;-67
2022/06/26 06:54:22;;;;;;;;;;;23.70;99.90;;;;;;5070451;28;19909;-69
2022/06/26 06:56:48;;;;;;;;;;;23.80;99.90;;;;;;5070667;28;19916;-68
2022/06/26 06:59:13;;;;;;;;;;;23.90;99.90;;;;;;5070134;28;19919;-68
2022/06/26 07:01:39;;;;;;;;;;;24.00;99.90;;;;;;5070721;28;19912;-69
2022/06/26 07:04:06;;;;;;;;;;;24.10;99.90;;;;;;5070579;28;20065;-68
2022/06/26 07:06:31;;;;;;;;;;;24.20;99.90;;;;;;5070233;28;20116;-68
2022/06/26 07:08:57;;;;;;;;;;;24.30;99.90;;;;;;5052596;28;19919;-68
2022/06/26 07:11:22;;;;;;;;;;;24.40;99.90;;;;;;5070515;28;20181;-67
2022/06/26 07:13:48;;;;;;;;;;;24.70;99.90;;;;;;5070227;28;19961;-69
2022/06/26 07:16:13;;;;;;;;;;;24.70;99.90;;;;;;5070441;28;19916;-69
2022/06/26 07:18:39;;;;;;;;;;;24.80;99.90;;;;;;5071356;28;20378;-68
2022/06/26 07:21:05;;;;;;;;;;;24.80;99.90;;;;;;5056331;28;19920;-69
2022/06/26 07:23:30;;;;;;;;;;;24.70;99.90;;;;;;5074203;28;20011;-68
2022/06/26 07:25:56;;;;;;;;;;;24.60;99.90;;;;;;5074337;28;20007;-68
2022/06/26 07:28:22;;;;;;;;;;;24.50;99.90;;;;;;5074487;28;20074;-68
2022/06/26 07:30:48;;;;;;;;;;;24.50;99.90;;;;;;5074408;28;20403;-68
2022/06/26 07:35:57;;;;;;;;;;;24.90;99.90;;;;;;5066864;28;20316;-68
2022/06/26 07:38:23;;;;;;;;;;;25.10;99.90;;;;;;5053985;28;19912;-68
2022/06/26 07:40:48;;;;;;;;;;;25.40;99.90;;;;;;5054101;28;19941;-68
2022/06/26 07:43:14;;;;;;;;;;;25.60;99.90;;;;;;5054067;28;19913;-68
2022/06/26 07:45:40;;;;;;;;;;;25.70;99.90;;;;;;5054035;28;20033;-69
2022/06/26 07:48:05;;;;;;;;;;;25.80;99.90;;;;;;5053741;28;19912;-69
2022/06/26 07:50:31;;;;;;;;;;;25.70;99.90;;;;;;5052532;28;19917;-69
2022/06/26 07:52:56;;;;;;;;;;;25.60;99.90;;;;;;5053596;28;20110;-70
2022/06/26 07:55:22;;;;;;;;;;;25.80;99.90;;;;;;5053816;28;20006;-69
2022/06/26 07:57:47;;;;;;;;;;;26.20;99.90;;;;;;5053716;28;19909;-69
2022/06/26 08:00:13;;;;;;;;;;;26.50;99.90;;;;;;5053560;28;20308;-69
2022/06/26 08:02:39;;;;;;;;;;;26.60;99.90;;;;;;5052208;28;19915;-74
2022/06/26 08:05:04;;;;;;;;;;;26.60;99.90;;;;;;5053600;28;19912;-72
2022/06/26 08:07:30;;;;;;;;;;;26.50;99.90;;;;;;5053480;28;20288;-72
2022/06/26 08:09:55;;;;;;;;;;;26.60;99.70;;;;;;5052896;28;19912;-72
2022/06/26 08:12:21;;;;;;;;;;;26.70;98.10;;;;;;5054797;28;19917;-72
2022/06/26 08:14:46;;;;;;;;;;;26.70;97.00;;;;;;5054198;28;20007;-70
2022/06/26 08:17:12;;;;;;;;;;;26.50;96.70;;;;;;5054592;28;19967;-72
2022/06/26 08:19:37;;;;;;;;;;;26.50;96.00;;;;;;5054205;28;20381;-72
2022/06/26 08:22:03;;;;;;;;;;;26.70;95.90;;;;;;5054515;28;19917;-72
2022/06/26 08:24:29;;;;;;;;;;;26.70;95.90;;;;;;5054526;28;20004;-74
2022/06/26 08:26:55;;;;;;;;;;;26.90;96.10;;;;;;5054490;28;20019;-74
2022/06/26 08:29:21;;;;;;;;;;;27.10;94.70;;;;;;5054168;28;19949;-73
2022/06/26 08:31:46;;;;;;;;;;;27.50;94.40;;;;;;5054040;28;19963;-74
2022/06/26 08:34:12;;;;;;;;;;;27.60;94.20;;;;;;5053858;28;20014;-75
2022/06/26 08:36:38;;;;;;;;;;;28.00;93.70;;;;;;5055069;28;20209;-72
2022/06/26 08:39:05;;;;;;;;;;;28.20;93.20;;;;;;5069160;28;20280;-69
2022/06/26 08:41:33;;;;;;;;;;;28.50;93.20;;;;;;5050826;28;19939;-72
2022/06/26 08:43:59;;;;;;;;;;;28.60;93.00;;;;;;5063533;28;19920;-69
2022/06/26 08:46:26;;;;;;;;;;;28.60;92.70;;;;;;5065313;28;20006;-70
2022/06/26 08:48:53;;;;;;;;;;;28.20;92.40;;;;;;5055757;28;19908;-73
2022/06/26 08:51:19;;;;;;;;;;;27.80;92.90;;;;;;5057289;28;20317;-72
2022/06/26 08:53:45;;;;;;;;;;;27.70;93.30;;;;;;5051562;28;19909;-72
2022/06/26 08:56:10;;;;;;;;;;;27.60;92.90;;;;;;5051632;28;19923;-71
2022/06/26 08:58:36;;;;;;;;;;;27.50;93.20;;;;;;5051781;28;19995;-72
2022/06/26 09:01:01;;;;;;;;;;;28.00;92.80;;;;;;5033588;28;19920;-72
2022/06/26 09:03:27;;;;;;;;;;;28.10;92.10;;;;;;5051705;28;19927;-71
2022/06/26 09:05:52;;;;;;;;;;;27.70;92.50;;;;;;5051785;28;20367;-66
2022/06/26 09:08:19;;;;;;;;;;;27.80;92.30;;;;;;5052799;28;19952;-68
2022/06/26 09:10:45;;;;;;;;;;;28.00;91.60;;;;;;5053435;28;19917;-67
2022/06/26 09:13:11;;;;;;;;;;;28.20;91.50;;;;;;5053073;28;19909;-67
2022/06/26 09:15:37;;;;;;;;;;;28.20;91.50;;;;;;5053200;28;20352;-67
2022/06/26 09:18:04;;;;;;;;;;;28.20;91.80;;;;;;5052945;28;19929;-67
2022/06/26 09:20:31;;;;;;;;;;;28.20;91.90;;;;;;5052981;28;19936;-67
2022/06/26 09:22:58;;;;;;;;;;;28.50;92.00;;;;;;5052970;28;19916;-66
2022/06/26 09:25:40;;;;;;;;;;;29.00;91.90;;;;;;5053053;28;20391;-66
2022/06/26 09:28:11;;;;;;;;;;;29.20;91.30;;;;;;5052998;28;19912;-67
2022/06/26 09:30:46;;;;;;;;;;;29.30;90.50;;;;;;5053013;28;19926;-67
2022/06/26 09:33:12;;;;;;;;;;;29.60;89.00;;;;;;5052913;28;19916;-68
2022/06/26 09:35:37;;;;;;;;;;;29.80;88.70;;;;;;5052654;28;20380;-66
2022/06/26 09:38:03;;;;;;;;;;;30.20;87.90;;;;;;5052808;28;19930;-67
2022/06/26 09:40:29;;;;;;;;;;;30.50;86.90;;;;;;5052784;28;20012;-67
2022/06/26 09:42:55;;;;;;;;;;;30.70;86.30;;;;;;5052382;28;19913;-67
2022/06/26 09:45:20;;;;;;;;;;;30.70;85.50;;;;;;5052637;28;20360;-66
2022/06/26 09:47:46;;;;;;;;;;;30.50;85.70;;;;;;5052491;28;19970;-67
2022/06/26 09:50:12;;;;;;;;;;;30.30;85.80;;;;;;5052331;28;19909;-67
2022/06/26 09:52:37;;;;;;;;;;;30.00;86.50;;;;;;5052714;28;19915;-67
2022/06/26 09:55:04;;;;;;;;;;;29.50;88.20;;;;;;5052188;28;19908;-68
2022/06/26 09:57:29;;;;;;;;;;;29.10;89.50;;;;;;5052364;28;19909;-67
2022/06/26 09:59:56;;;;;;;;;;;28.80;90.20;;;;;;5052036;28;19924;-67
2022/06/26 10:07:54;;;;;;;;;;;28.60;86.90;;;;;;5052589;28;20015;-68
2022/06/26 10:10:20;;;;;;;;;;;29.00;85.40;;;;;;5051849;28;20384;-67
2022/06/26 10:12:47;;;;;;;;;;;29.30;85.00;;;;;;5051991;28;19912;-67
2022/06/26 10:15:14;;;;;;;;;;;29.50;85.20;;;;;;5051945;28;20638;-67
2022/06/26 10:18:14;;;;;;;;;;;29.40;85.80;;;;;;5051992;28;20004;-67
2022/06/26 10:20:41;;;;;;;;;;;29.00;85.80;;;;;;5009750;28;20078;-67
2022/06/26 10:23:06;;;;;;;;;;;28.60;87.00;;;;;;5043057;28;20007;-67
2022/06/26 10:25:32;;;;;;;;;;;28.50;87.80;;;;;;5051811;28;20347;-66
2022/06/26 10:27:58;;;;;;;;;;;28.80;87.00;;;;;;5052010;28;20278;-67
2022/06/26 10:30:28;;;;;;;;;;;29.50;86.60;;;;;;5051839;28;19959;-67
2022/06/26 10:33:18;;;;;;;;;;;29.70;85.30;;;;;;5051821;28;20368;-67
2022/06/26 10:35:54;;;;;;;;;;;29.00;85.50;;;;;;5030022;28;19921;-68
2022/06/26 10:38:24;;;;;;;;;;;28.50;86.40;;;;;;5032022;28;19992;-67
2022/06/26 10:43:55;;;;;;;;;;;27.60;90.00;;;;;;5032108;28;20376;-68
2022/06/26 10:46:21;;;;;;;;;;;27.50;90.10;;;;;;5031553;28;19921;-68
2022/06/26 10:48:52;;;;;;;;;;;27.60;90.30;;;;;;5031812;28;19948;-68
2022/06/26 10:51:29;;;;;;;;;;;27.70;90.70;;;;;;5031859;28;20118;-68
2022/06/26 10:53:54;;;;;;;;;;;27.80;90.80;;;;;;5031039;28;19996;-67
2022/06/26 10:56:20;;;;;;;;;;;28.00;90.80;;;;;;5031963;28;20048;-68
2022/06/26 10:58:48;;;;;;;;;;;28.60;90.20;;;;;;5031569;28;19920;-69
2022/06/26 11:01:14;;;;;;;;;;;28.60;90.00;;;;;;5032035;28;19917;-67
2022/06/26 11:03:40;;;;;;;;;;;28.50;90.50;;;;;;5030066;28;19909;-68
2022/06/26 11:06:15;;;;;;;;;;;28.30;90.60;;;;;;5031572;28;20012;-68
2022/06/26 11:08:47;;;;;;;;;;;27.90;90.30;;;;;;5031453;28;20003;-67
2022/06/26 11:11:17;;;;;;;;;;;27.80;90.70;;;;;;5031158;28;19967;-67
2022/06/26 11:13:53;;;;;;;;;;;28.30;90.50;;;;;;5031290;28;19916;-68
2022/06/26 11:16:29;;;;;;;;;;;28.50;90.50;;;;;;5029806;28;20016;-68
2022/06/26 11:18:55;;;;;;;;;;;28.30;90.90;;;;;;5031295;28;19913;-68
2022/06/26 11:21:21;;;;;;;;;;;27.90;90.80;;;;;;5031261;28;20063;-68
2022/06/26 11:23:47;;;;;;;;;;;27.60;90.40;;;;;;5031421;28;20262;-68
2022/06/26 11:26:13;;;;;;;;;;;28.00;90.30;;;;;;5031303;28;19925;-68
2022/06/26 11:28:42;;;;;;;;;;;28.70;89.00;;;;;;5031169;28;19913;-68
2022/06/26 11:31:09;;;;;;;;;;;29.50;88.20;;;;;;5031354;28;19921;-68
2022/06/26 11:33:36;;;;;;;;;;;30.10;85.50;;;;;;5031450;28;20276;-68
2022/06/26 11:36:09;;;;;;;;;;;30.00;84.60;;;;;;5038804;28;20454;-68
2022/06/26 11:38:35;;;;;;;;;;;29.70;85.20;;;;;;5051158;28;19974;-68
2022/06/26 11:41:03;;;;;;;;;;;29.70;85.30;;;;;;5032941;28;20309;-69
2022/06/26 11:43:29;;;;;;;;;;;29.70;85.50;;;;;;5051000;28;19995;-69
2022/06/26 11:45:58;;;;;;;;;;;29.90;84.50;;;;;;5051339;28;19924;-68
2022/06/26 11:48:24;;;;;;;;;;;30.10;85.20;;;;;;5050927;28;19908;-68
2022/06/26 11:50:51;;;;;;;;;;;29.90;85.20;;;;;;5051300;28;19917;-68
2022/06/26 11:53:17;;;;;;;;;;;29.20;86.20;;;;;;5050842;28;19923;-68
2022/06/26 11:55:46;;;;;;;;;;;28.40;87.30;;;;;;5051597;28;20011;-68
2022/06/26 11:58:12;;;;;;;;;;;28.00;87.70;;;;;;5050817;28;19948;-68
2022/06/26 12:00:37;;;;;;;;;;;27.70;89.10;;;;;;5050890;28;20312;-68
2022/06/26 12:03:03;;;;;;;;;;;27.70;89.60;;;;;;5050856;28;19933;-69
2022/06/26 12:05:30;;;;;;;;;;;27.90;89.60;;;;;;5053154;28;19917;-68
2022/06/26 12:07:56;;;;;;;;;;;28.10;89.00;;;;;;5054716;28;19913;-68
2022/06/26 12:10:30;;;;;;;;;;;28.40;88.10;;;;;;5054579;28;20300;-69
2022/06/26 12:12:56;;;;;;;;;;;28.60;86.20;;;;;;5054381;28;20281;-68
2022/06/26 12:15:23;;;;;;;;;;;28.80;85.00;;;;;;5054331;28;19928;-67
2022/06/26 12:17:52;;;;;;;;;;;28.90;85.10;;;;;;5036281;28;19991;-67
2022/06/26 12:20:18;;;;;;;;;;;29.20;84.40;;;;;;5054439;28;20335;-68
2022/06/26 12:22:47;;;;;;;;;;;29.50;83.90;;;;;;5054069;28;19913;-67
2022/06/26 12:25:22;;;;;;;;;;;29.60;83.20;;;;;;5053966;28;19951;-66
2022/06/26 12:27:48;;;;;;;;;;;29.30;82.80;;;;;;5053920;28;19905;-67
2022/06/26 12:30:17;;;;;;;;;;;29.30;83.20;;;;;;5053935;28;19916;-67
2022/06/26 12:32:43;;;;;;;;;;;29.20;83.70;;;;;;5053992;28;19913;-68
2022/06/26 12:35:08;;;;;;;;;;;29.00;83.50;;;;;;5053708;28;20180;-67
2022/06/26 12:37:34;;;;;;;;;;;28.80;83.90;;;;;;5053906;28;20349;-68
2022/06/26 12:39:59;;;;;;;;;;;28.90;84.30;;;;;;5053872;28;19966;-67
2022/06/26 12:42:25;;;;;;;;;;;28.90;84.60;;;;;;5053831;28;19919;-68
2022/06/26 12:44:50;;;;;;;;;;;29.00;84.00;;;;;;5053968;28;20000;-68
2022/06/26 12:47:16;;;;;;;;;;;29.00;82.50;;;;;;5036075;28;19921;-68
2022/06/26 12:49:41;;;;;;;;;;;29.00;83.90;;;;;;5053863;28;19948;-67
2022/06/26 12:52:07;;;;;;;;;;;28.90;84.00;;;;;;5053475;28;19924;-67
2022/06/26 12:54:32;;;;;;;;;;;28.70;84.70;;;;;;5053622;28;19935;-67
2022/06/26 12:56:58;;;;;;;;;;;28.50;85.20;;;;;;5035745;28;19963;-68
2022/06/26 12:59:23;;;;;;;;;;;28.20;85.50;;;;;;5053239;28;19999;-68
2022/06/26 13:01:49;;;;;;;;;;;28.00;86.20;;;;;;5053784;28;19928;-68
2022/06/26 13:04:14;;;;;;;;;;;27.90;86.90;;;;;;5035707;28;20004;-68
2022/06/26 13:06:40;;;;;;;;;;;27.80;87.60;;;;;;5053745;28;19924;-68
2022/06/26 13:09:05;;;;;;;;;;;27.70;87.80;;;;;;5053282;28;19913;-68
2022/06/26 13:11:31;;;;;;;;;;;27.50;88.20;;;;;;5053554;28;20373;-68
2022/06/26 13:13:56;;;;;;;;;;;27.30;88.10;;;;;;5053014;28;19931;-68
2022/06/26 13:16:22;;;;;;;;;;;27.30;88.50;;;;;;5052696;28;20019;-68
2022/06/26 13:18:48;;;;;;;;;;;27.40;88.60;;;;;;5052977;28;19909;-68
2022/06/26 13:21:13;;;;;;;;;;;27.40;88.90;;;;;;5053031;28;20386;-67
2022/06/26 13:23:39;;;;;;;;;;;27.40;89.20;;;;;;5052974;28;19909;-67
2022/06/26 13:26:04;;;;;;;;;;;27.40;89.30;;;;;;5053342;28;19952;-68
2022/06/26 13:28:30;;;;;;;;;;;27.20;89.30;;;;;;5052746;28;19909;-68
2022/06/26 13:30:55;;;;;;;;;;;27.20;89.30;;;;;;5035189;28;19925;-68
2022/06/26 13:33:22;;;;;;;;;;;27.10;88.80;;;;;;5052703;28;19909;-67
2022/06/26 13:35:47;;;;;;;;;;;27.10;88.90;;;;;;5052717;28;19936;-67
2022/06/26 13:38:13;;;;;;;;;;;27.10;89.20;;;;;;5052640;28;20281;-67
2022/06/26 13:40:38;;;;;;;;;;;27.10;89.30;;;;;;5052842;28;20023;-67
2022/06/26 13:43:04;;;;;;;;;;;27.10;89.20;;;;;;5052693;28;19915;-66
2022/06/26 13:45:29;;;;;;;;;;;27.10;88.90;;;;;;5052682;28;19923;-67
2022/06/26 13:47:55;;;;;;;;;;;27.10;89.50;;;;;;5034513;28;20015;-67
2022/06/26 13:50:21;;;;;;;;;;;27.00;89.80;;;;;;5052588;28;20007;-68
2022/06/26 13:52:46;;;;;;;;;;;26.90;90.00;;;;;;5052734;28;19912;-67
2022/06/26 13:55:11;;;;;;;;;;;26.90;90.30;;;;;;5052371;28;19913;-67
2022/06/26 13:57:37;;;;;;;;;;;26.90;89.70;;;;;;5052431;28;20386;-68
2022/06/26 14:00:04;;;;;;;;;;;26.90;89.50;;;;;;5052400;28;20039;-67
2022/06/26 14:02:29;;;;;;;;;;;26.80;88.90;;;;;;5052732;28;20441;-67
2022/06/26 14:04:55;;;;;;;;;;;26.80;89.20;;;;;;5052295;28;20011;-66
2022/06/26 14:07:20;;;;;;;;;;;26.80;89.20;;;;;;5052811;28;19940;-67
2022/06/26 14:09:46;;;;;;;;;;;26.90;89.40;;;;;;5052237;28;19995;-67
2022/06/26 14:12:11;;;;;;;;;;;26.90;89.10;;;;;;5052186;28;20004;-67
2022/06/26 14:14:37;;;;;;;;;;;27.00;88.70;;;;;;5052208;28;19909;-67
2022/06/26 14:17:03;;;;;;;;;;;27.20;88.80;;;;;;5052460;28;19924;-67
2022/06/26 14:19:28;;;;;;;;;;;27.30;88.20;;;;;;5051875;28;20225;-67
2022/06/26 14:27:22;;;;;;;;;;;27.30;88.30;;;;;;5052356;28;20055;-67
2022/06/26 14:29:48;;;;;;;;;;;27.20;89.20;;;;;;5051860;28;20372;-67
2022/06/26 14:32:14;;;;;;;;;;;27.10;89.60;;;;;;5051676;28;19917;-66